Time;durP1;ratioP1;P1;durP2;ratioP2;P2;SDS_P1;SDS_P2;PMS_P1;PMS_P2;Temp;Humidity;BMP_temperature;BMP_pressure;BME280_temperature;BME280_humidity;BME280_pressure;Samples;Min_cycle;Max_cycle;Signal;HPM_P1;HPM_P2
2022/08/01 00:02:24;;;;;;;;;;;;;;;;;;5007179;28;19956;-82
2022/08/01 00:05:11;;;;;;;;;;;;;;;;;;5006395;28;19917;-82
2022/08/01 00:07:57;;;;;;;;;;;;;;;;;;5025767;28;20397;-81
2022/08/01 00:10:44;;;;;;;;;;;;;;;;;;5025051;28;19909;-83
2022/08/01 00:13:30;;;;;;;;;;;;;;;;;;5025534;28;19924;-80
2022/08/01 00:16:17;;;;;;;;;;;;;;;;;;5026873;28;19935;-81
2022/08/01 00:19:03;;;;;;;;;;;;;;;;;;5011459;28;19932;-83
2022/08/01 00:21:50;;;;;;;;;;;;;;;;;;5020649;28;19936;-80
2022/08/01 00:24:36;;;;;;;;;;;;;;;;;;5020823;28;20464;-80
2022/08/01 00:27:23;;;;;;;;;;;;;;;;;;5015688;28;19913;-80
2022/08/01 00:30:09;;;;;;;;;;;;;;;;;;5012968;28;19913;-83
2022/08/01 00:32:56;;;;;;;;;;;;;;;;;;5027882;28;19913;-83
2022/08/01 00:35:42;;;;;;;;;;;;;;;;;;5028254;28;19913;-82
2022/08/01 00:38:29;;;;;;;;;;;;;;;;;;5027778;28;19917;-82
2022/08/01 00:41:15;;;;;;;;;;;;;;;;;;5025198;28;19921;-81
2022/08/01 00:44:01;;;;;;;;;;;;;;;;;;5023461;28;19920;-81
2022/08/01 00:46:48;;;;;;;;;;;;;;;;;;5023046;28;19913;-81
2022/08/01 00:49:34;;;;;;;;;;;;;;;;;;5021522;28;19927;-81
2022/08/01 00:52:21;;;;;;;;;;;;;;;;;;5021463;28;20468;-81
2022/08/01 00:55:07;;;;;;;;;;;;;;;;;;5018801;28;19913;-82
2022/08/01 00:57:54;;;;;;;;;;;;;;;;;;5023357;28;20652;-82
2022/08/01 01:00:40;;;;;;;;;;;;;;;;;;5022454;28;19925;-83
2022/08/01 01:03:27;;;;;;;;;;;;;;;;;;5022877;28;19936;-82
2022/08/01 01:06:13;;;;;;;;;;;;;;;;;;5023720;28;19931;-83
2022/08/01 01:09:00;;;;;;;;;;;;;;;;;;5024915;28;19921;-82
2022/08/01 01:11:46;;;;;;;;;;;;;;;;;;5020597;28;19924;-82
2022/08/01 01:14:32;;;;;;;;;;;;;;;;;;5016913;28;19944;-82
2022/08/01 01:17:19;;;;;;;;;;;;;;;;;;5018736;28;19921;-82
2022/08/01 01:20:05;;;;;;;;;;;;;;;;;;5006899;28;20027;-83
2022/08/01 01:22:52;;;;;;;;;;;;;;;;;;5012360;28;19925;-81
2022/08/01 01:25:38;;;;;;;;;;;;;;;;;;5023469;28;20575;-79
2022/08/01 01:28:25;;;;;;;;;;;;;;;;;;5011419;28;19920;-81
2022/08/01 01:31:11;;;;;;;;;;;;;;;;;;5023673;28;19925;-83
2022/08/01 01:33:58;;;;;;;;;;;;;;;;;;5023508;28;19917;-83
2022/08/01 01:36:44;;;;;;;;;;;;;;;;;;5023417;28;19924;-80
2022/08/01 01:39:31;;;;;;;;;;;;;;;;;;5011284;28;19932;-84
2022/08/01 01:42:17;;;;;;;;;;;;;;;;;;5020743;28;19936;-83
2022/08/01 01:45:04;;;;;;;;;;;;;;;;;;5025174;28;19917;-83
2022/08/01 01:47:50;;;;;;;;;;;;;;;;;;5016988;28;19929;-84
2022/08/01 01:50:37;;;;;;;;;;;;;;;;;;5018899;28;20393;-81
2022/08/01 01:53:23;;;;;;;;;;;;;;;;;;5025671;28;19917;-82
2022/08/01 01:56:10;;;;;;;;;;;;;;;;;;5011916;28;20360;-81
2022/08/01 01:58:56;;;;;;;;;;;;;;;;;;5017798;28;19917;-81
2022/08/01 02:01:45;;;;;;;;;;;;;;;;;;5021946;28;20490;-81
2022/08/01 02:04:32;;;;;;;;;;;;;;;;;;5020894;28;19920;-81
2022/08/01 02:07:18;;;;;;;;;;;;;;;;;;5019727;28;19925;-82
2022/08/01 02:10:05;;;;;;;;;;;;;;;;;;5024817;28;19920;-81
2022/08/01 02:12:51;;;;;;;;;;;;;;;;;;5022969;28;19920;-81
2022/08/01 02:15:38;;;;;;;;;;;;;;;;;;5017878;28;20352;-81
2022/08/01 02:18:24;;;;;;;;;;;;;;;;;;5023002;28;19924;-81
2022/08/01 02:21:11;;;;;;;;;;;;;;;;;;5012915;28;19948;-80
2022/08/01 02:23:58;;;;;;;;;;;;;;;;;;5022729;28;20345;-81
2022/08/01 02:26:44;;;;;;;;;;;;;;;;;;5024230;28;19920;-81
2022/08/01 02:29:31;;;;;;;;;;;;;;;;;;5018891;28;19924;-80
2022/08/01 02:32:17;;;;;;;;;;;;;;;;;;5018771;28;19913;-79
2022/08/01 02:35:03;;;;;;;;;;;;;;;;;;5023584;28;19925;-79
2022/08/01 02:37:50;;;;;;;;;;;;;;;;;;5020945;28;19917;-81
2022/08/01 02:40:37;;;;;;;;;;;;;;;;;;5020748;28;19928;-80
2022/08/01 02:43:23;;;;;;;;;;;;;;;;;;5022511;28;19913;-79
2022/08/01 02:46:10;;;;;;;;;;;;;;;;;;5023313;28;20210;-79
2022/08/01 02:48:56;;;;;;;;;;;;;;;;;;5007988;28;19923;-81
2022/08/01 02:51:42;;;;;;;;;;;;;;;;;;5022084;28;19972;-80
2022/08/01 02:54:29;;;;;;;;;;;;;;;;;;5022125;28;20385;-80
2022/08/01 02:57:15;;;;;;;;;;;;;;;;;;5021403;28;19918;-80
2022/08/01 03:00:02;;;;;;;;;;;;;;;;;;5004412;28;20293;-81
2022/08/01 03:02:50;;;;;;;;;;;;;;;;;;5020597;28;19913;-79
2022/08/01 03:05:36;;;;;;;;;;;;;;;;;;5017967;28;19921;-80
2022/08/01 03:08:23;;;;;;;;;;;;;;;;;;5017780;28;19913;-79
2022/08/01 03:11:09;;;;;;;;;;;;;;;;;;5023206;28;19924;-78
2022/08/01 03:13:56;;;;;;;;;;;;;;;;;;5021588;28;19912;-80
2022/08/01 03:16:42;;;;;;;;;;;;;;;;;;5025322;28;20277;-81
2022/08/01 03:19:30;;;;;;;;;;;;;;;;;;5025907;28;19925;-79
2022/08/01 03:22:16;;;;;;;;;;;;;;;;;;5017538;28;20309;-79
2022/08/01 03:25:03;;;;;;;;;;;;;;;;;;5024774;28;19913;-79
2022/08/01 03:27:49;;;;;;;;;;;;;;;;;;5019279;28;20404;-79
2022/08/01 03:30:35;;;;;;;;;;;;;;;;;;5018779;28;19913;-82
2022/08/01 03:33:22;;;;;;;;;;;;;;;;;;5020395;28;20400;-81
2022/08/01 03:36:08;;;;;;;;;;;;;;;;;;5021819;28;20271;-81
2022/08/01 03:38:55;;;;;;;;;;;;;;;;;;5023088;28;19914;-81
2022/08/01 03:41:41;;;;;;;;;;;;;;;;;;5019243;28;19925;-81
2022/08/01 03:44:28;;;;;;;;;;;;;;;;;;5024246;28;20424;-80
2022/08/01 03:47:15;;;;;;;;;;;;;;;;;;5025470;28;19917;-81
2022/08/01 03:50:01;;;;;;;;;;;;;;;;;;5025307;28;20490;-81
2022/08/01 03:52:48;;;;;;;;;;;;;;;;;;5025007;28;19920;-81
2022/08/01 03:55:35;;;;;;;;;;;;;;;;;;5023562;28;20280;-82
2022/08/01 03:58:21;;;;;;;;;;;;;;;;;;5025576;28;20392;-80
2022/08/01 04:01:09;;;;;;;;;;;;;;;;;;5026139;28;19928;-81
2022/08/01 04:03:55;;;;;;;;;;;;;;;;;;5017468;28;19913;-82
2022/08/01 04:06:44;;;;;;;;;;;;;;;;;;5024367;28;19932;-82
2022/08/01 04:09:31;;;;;;;;;;;;;;;;;;5019332;28;19943;-82
2022/08/01 04:12:18;;;;;;;;;;;;;;;;;;5020683;28;19914;-81
2022/08/01 04:15:04;;;;;;;;;;;;;;;;;;5020886;28;19924;-82
2022/08/01 04:17:51;;;;;;;;;;;;;;;;;;5023812;28;20448;-80
2022/08/01 04:20:37;;;;;;;;;;;;;;;;;;5022505;28;19928;-81
2022/08/01 04:23:25;;;;;;;;;;;;;;;;;;5011462;28;19920;-81
2022/08/01 04:26:11;;;;;;;;;;;;;;;;;;5000107;28;20373;-82
2022/08/01 04:28:58;;;;;;;;;;;;;;;;;;5018954;28;19917;-80
2022/08/01 04:31:44;;;;;;;;;;;;;;;;;;5012418;28;20292;-80
2022/08/01 04:34:31;;;;;;;;;;;;;;;;;;5015326;28;19917;-80
2022/08/01 04:37:17;;;;;;;;;;;;;;;;;;5022312;28;19913;-79
2022/08/01 04:40:04;;;;;;;;;;;;;;;;;;5022949;28;19925;-79
2022/08/01 04:42:51;;;;;;;;;;;;;;;;;;5023847;28;19913;-81
2022/08/01 04:45:37;;;;;;;;;;;;;;;;;;5025888;28;19913;-81
2022/08/01 04:48:24;;;;;;;;;;;;;;;;;;5022126;28;19913;-81
2022/08/01 04:51:10;;;;;;;;;;;;;;;;;;5023288;28;19917;-81
2022/08/01 04:53:58;;;;;;;;;;;;;;;;;;5011018;28;19936;-81
2022/08/01 04:56:45;;;;;;;;;;;;;;;;;;5022684;28;19913;-81
2022/08/01 04:59:41;;;;;;;;;;;;;;;;;;5021814;28;19929;-81
2022/08/01 05:02:30;;;;;;;;;;;;;;;;;;5023522;28;19913;-84
2022/08/01 05:05:17;;;;;;;;;;;;;;;;;;5025352;28;20305;-83
2022/08/01 05:08:03;;;;;;;;;;;;;;;;;;5019163;28;19924;-83
2022/08/01 05:10:50;;;;;;;;;;;;;;;;;;5026730;28;20655;-84
2022/08/01 05:13:36;;;;;;;;;;;;;;;;;;5031696;28;19914;-83
2022/08/01 05:16:22;;;;;;;;;;;;;;;;;;5017585;28;20365;-81
2022/08/01 05:19:09;;;;;;;;;;;;;;;;;;5018649;28;19913;-79
2022/08/01 05:21:56;;;;;;;;;;;;;;;;;;5021558;28;20380;-79
2022/08/01 05:24:42;;;;;;;;;;;;;;;;;;5025341;28;20373;-78
2022/08/01 05:27:29;;;;;;;;;;;;;;;;;;5022748;28;20268;-78
2022/08/01 05:30:15;;;;;;;;;;;;;;;;;;5022250;28;19919;-81
2022/08/01 05:33:02;;;;;;;;;;;;;;;;;;5021521;28;19917;-87
2022/08/01 05:35:49;;;;;;;;;;;;;;;;;;5016655;28;20285;-86
2022/08/01 05:38:35;;;;;;;;;;;;;;;;;;5007370;28;19920;-86
2022/08/01 05:41:22;;;;;;;;;;;;;;;;;;5019569;28;19936;-87
2022/08/01 05:44:08;;;;;;;;;;;;;;;;;;5020102;28;19917;-86
2022/08/01 05:46:55;;;;;;;;;;;;;;;;;;5023747;28;19913;-84
2022/08/01 05:49:41;;;;;;;;;;;;;;;;;;5022879;28;19948;-83
2022/08/01 05:52:28;;;;;;;;;;;;;;;;;;5011077;28;20293;-81
2022/08/01 05:55:14;;;;;;;;;;;;;;;;;;5023784;28;20682;-82
2022/08/01 05:58:01;;;;;;;;;;;;;;;;;;5023412;28;19913;-82
2022/08/01 06:00:47;;;;;;;;;;;;;;;;;;5023875;28;20373;-82
2022/08/01 06:03:34;;;;;;;;;;;;;;;;;;5019120;28;19924;-81
2022/08/01 06:06:20;;;;;;;;;;;;;;;;;;5024511;28;20319;-81
2022/08/01 06:09:07;;;;;;;;;;;;;;;;;;5016597;28;19913;-81
2022/08/01 06:11:53;;;;;;;;;;;;;;;;;;4998212;28;19914;-85
2022/08/01 06:14:40;;;;;;;;;;;;;;;;;;5015578;28;19918;-87
2022/08/01 06:17:29;;;;;;;;;;;;;;;;;;5027321;28;21267;-85
2022/08/01 06:20:15;;;;;;;;;;;;;;;;;;5022474;28;19931;-81
2022/08/01 06:23:02;;;;;;;;;;;;;;;;;;5018613;28;19914;-81
2022/08/01 06:25:48;;;;;;;;;;;;;;;;;;5019312;28;19918;-80
2022/08/01 06:28:35;;;;;;;;;;;;;;;;;;5018828;28;20803;-79
2022/08/01 06:31:21;;;;;;;;;;;;;;;;;;5011339;28;20645;-83
2022/08/01 06:34:08;;;;;;;;;;;;;;;;;;5021956;28;19917;-86
2022/08/01 06:36:54;;;;;;;;;;;;;;;;;;5026322;28;20293;-85
2022/08/01 06:39:41;;;;;;;;;;;;;;;;;;5020217;28;20392;-83
2022/08/01 06:42:27;;;;;;;;;;;;;;;;;;5022816;28;19924;-84
2022/08/01 06:45:14;;;;;;;;;;;;;;;;;;5025222;28;19913;-84
2022/08/01 06:48:00;;;;;;;;;;;;;;;;;;5028636;28;20683;-85
2022/08/01 06:50:47;;;;;;;;;;;;;;;;;;5021252;28;19913;-84
2022/08/01 06:53:34;;;;;;;;;;;;;;;;;;5020727;28;19913;-84
2022/08/01 06:56:20;;;;;;;;;;;;;;;;;;5021236;28;19928;-84
2022/08/01 06:59:06;;;;;;;;;;;;;;;;;;5021129;28;19917;-84
2022/08/01 07:01:53;;;;;;;;;;;;;;;;;;5021209;28;19937;-84
2022/08/01 07:04:39;;;;;;;;;;;;;;;;;;5006407;28;19913;-83
2022/08/01 07:07:26;;;;;;;;;;;;;;;;;;5019663;28;20372;-83
2022/08/01 07:10:13;;;;;;;;;;;;;;;;;;5023307;28;19913;-83
2022/08/01 07:12:59;;;;;;;;;;;;;;;;;;5021144;28;19913;-83
2022/08/01 07:15:46;;;;;;;;;;;;;;;;;;5003533;28;19936;-83
2022/08/01 07:18:32;;;;;;;;;;;;;;;;;;5021291;28;19913;-83
2022/08/01 07:21:18;;;;;;;;;;;;;;;;;;5019731;28;19943;-83
2022/08/01 07:24:05;;;;;;;;;;;;;;;;;;5023464;28;19917;-83
2022/08/01 07:26:53;;;;;;;;;;;;;;;;;;5010091;28;19924;-81
2022/08/01 07:29:40;;;;;;;;;;;;;;;;;;5020402;28;19917;-80
2022/08/01 07:32:26;;;;;;;;;;;;;;;;;;5022113;28;20258;-82
2022/08/01 07:35:13;;;;;;;;;;;;;;;;;;5015272;28;19913;-81
2022/08/01 07:37:59;;;;;;;;;;;;;;;;;;5008933;28;19913;-82
2022/08/01 07:40:46;;;;;;;;;;;;;;;;;;5008122;28;19947;-82
2022/08/01 07:43:32;;;;;;;;;;;;;;;;;;5022602;28;19912;-81
2022/08/01 07:46:19;;;;;;;;;;;;;;;;;;5020573;28;19917;-82
2022/08/01 07:49:05;;;;;;;;;;;;;;;;;;5008942;28;20314;-81
2022/08/01 07:51:52;;;;;;;;;;;;;;;;;;5022069;28;19928;-81
2022/08/01 07:54:38;;;;;;;;;;;;;;;;;;5019222;28;19913;-81
2022/08/01 07:57:25;;;;;;;;;;;;;;;;;;5021728;28;19920;-81
2022/08/01 08:00:11;;;;;;;;;;;;;;;;;;5025658;28;19921;-80
2022/08/01 08:02:59;;;;;;;;;;;;;;;;;;5026574;28;19921;-83
2022/08/01 08:05:45;;;;;;;;;;;;;;;;;;5023496;28;19929;-80
2022/08/01 08:08:34;;;;;;;;;;;;;;;;;;5022236;28;20548;-78
2022/08/01 08:11:20;;;;;;;;;;;;;;;;;;5023857;28;19917;-80
2022/08/01 08:14:07;;;;;;;;;;;;;;;;;;5025677;28;19913;-79
2022/08/01 08:16:53;;;;;;;;;;;;;;;;;;5023905;28;19917;-78
2022/08/01 08:19:40;;;;;;;;;;;;;;;;;;5021997;28;20452;-78
2022/08/01 08:22:26;;;;;;;;;;;;;;;;;;5021443;28;19929;-76
2022/08/01 08:25:13;;;;;;;;;;;;;;;;;;5026193;28;19913;-77
2022/08/01 08:27:59;;;;;;;;;;;;;;;;;;5022151;28;20641;-77
2022/08/01 08:30:46;;;;;;;;;;;;;;;;;;5022934;28;19913;-79
2022/08/01 08:33:32;;;;;;;;;;;;;;;;;;5023835;28;20297;-78
2022/08/01 08:36:19;;;;;;;;;;;;;;;;;;5024115;28;19913;-77
2022/08/01 08:39:05;;;;;;;;;;;;;;;;;;5025285;28;19917;-78
2022/08/01 08:41:52;;;;;;;;;;;;;;;;;;5025370;28;19994;-78
2022/08/01 08:44:38;;;;;;;;;;;;;;;;;;5022750;28;19917;-78
2022/08/01 08:47:25;;;;;;;;;;;;;;;;;;5023193;28;19913;-77
2022/08/01 08:50:11;;;;;;;;;;;;;;;;;;5022556;28;19939;-77
2022/08/01 08:52:59;;;;;;;;;;;;;;;;;;5024030;28;19913;-78
2022/08/01 08:55:45;;;;;;;;;;;;;;;;;;5023282;28;19913;-78
2022/08/01 08:58:37;;;;;;;;;;;;;;;;;;5023797;28;19917;-78
2022/08/01 09:01:23;;;;;;;;;;;;;;;;;;5022653;28;19935;-77
2022/08/01 09:04:10;;;;;;;;;;;;;;;;;;5022851;28;19925;-77
2022/08/01 09:06:56;;;;;;;;;;;;;;;;;;5022823;28;19932;-76
2022/08/01 09:09:43;;;;;;;;;;;;;;;;;;5022263;28;19920;-74
2022/08/01 09:12:29;;;;;;;;;;;;;;;;;;5018194;28;20320;-76
2022/08/01 09:15:15;;;;;;;;;;;;;;;;;;5019787;28;19918;-76
2022/08/01 09:18:02;;;;;;;;;;;;;;;;;;5025945;28;20407;-75
2022/08/01 09:20:48;;;;;;;;;;;;;;;;;;5022225;28;19917;-77
2022/08/01 09:23:35;;;;;;;;;;;;;;;;;;5008819;28;19920;-77
2022/08/01 09:26:21;;;;;;;;;;;;;;;;;;5032352;28;19924;-77
2022/08/01 09:29:08;;;;;;;;;;;;;;;;;;5037213;28;19910;-77
2022/08/01 09:31:55;;;;;;;;;;;;;;;;;;5050319;28;20000;-77
2022/08/01 09:34:41;;;;;;;;;;;;;;;;;;5045985;28;19929;-78
2022/08/01 09:37:28;;;;;;;;;;;;;;;;;;5044799;28;19913;-78
2022/08/01 09:40:14;;;;;;;;;;;;;;;;;;5029046;28;19917;-78
2022/08/01 09:43:00;;;;;;;;;;;;;;;;;;5043371;28;19914;-77
2022/08/01 09:45:47;;;;;;;;;;;;;;;;;;5025782;28;19925;-76
2022/08/01 09:48:33;;;;;;;;;;;;;;;;;;5045091;28;19917;-78
2022/08/01 09:51:20;;;;;;;;;;;;;;;;;;5026615;28;19967;-78
2022/08/01 09:54:06;;;;;;;;;;;;;;;;;;5046203;28;19913;-78
2022/08/01 09:56:53;;;;;;;;;;;;;;;;;;5029456;28;19917;-79
2022/08/01 09:59:41;;;;;;;;;;;;;;;;;;5044790;28;19917;-79
2022/08/01 10:02:28;;;;;;;;;;;;;;;;;;5038925;28;19921;-80
2022/08/01 10:05:14;;;;;;;;;;;;;;;;;;5049832;28;19916;-78
2022/08/01 10:08:01;;;;;;;;;;;;;;;;;;5041453;28;19919;-80
2022/08/01 10:10:48;;;;;;;;;;;;;;;;;;5043020;28;19915;-78
2022/08/01 10:13:34;;;;;;;;;;;;;;;;;;5045034;28;19931;-79
2022/08/01 10:16:21;;;;;;;;;;;;;;;;;;5024920;28;19917;-75
2022/08/01 10:19:07;;;;;;;;;;;;;;;;;;5038332;28;19917;-77
2022/08/01 10:21:54;;;;;;;;;;;;;;;;;;5041384;28;19921;-81
2022/08/01 10:24:40;;;;;;;;;;;;;;;;;;5046820;28;19923;-82
2022/08/01 10:27:27;;;;;;;;;;;;;;;;;;5043359;28;19909;-80
2022/08/01 10:30:13;;;;;;;;;;;;;;;;;;5046291;28;20373;-84
2022/08/01 10:33:00;;;;;;;;;;;;;;;;;;5044033;28;19913;-79
2022/08/01 10:35:46;;;;;;;;;;;;;;;;;;5045332;28;19897;-78
2022/08/01 10:38:33;;;;;;;;;;;;;;;;;;5030757;28;19912;-83
2022/08/01 10:41:19;;;;;;;;;;;;;;;;;;5042961;28;19921;-82
2022/08/01 10:44:06;;;;;;;;;;;;;;;;;;5020767;28;19913;-81
2022/08/01 10:46:52;;;;;;;;;;;;;;;;;;5021033;28;19923;-80
2022/08/01 10:49:39;;;;;;;;;;;;;;;;;;5017799;28;20465;-82
2022/08/01 10:52:25;;;;;;;;;;;;;;;;;;5020873;28;19913;-81
2022/08/01 10:55:12;;;;;;;;;;;;;;;;;;5021992;28;20595;-77
2022/08/01 10:57:58;;;;;;;;;;;;;;;;;;5023181;28;19920;-77
2022/08/01 11:00:45;;;;;;;;;;;;;;;;;;5021066;28;19924;-79
2022/08/01 11:03:31;;;;;;;;;;;;;;;;;;5022375;28;19924;-80
2022/08/01 11:06:18;;;;;;;;;;;;;;;;;;5021206;28;19925;-80
2022/08/01 11:09:04;;;;;;;;;;;;;;;;;;5019992;28;20723;-80
2022/08/01 11:11:51;;;;;;;;;;;;;;;;;;5017737;28;19928;-79
2022/08/01 11:14:37;;;;;;;;;;;;;;;;;;5020283;28;19917;-80
2022/08/01 11:17:24;;;;;;;;;;;;;;;;;;5022530;28;19913;-80
2022/08/01 11:20:10;;;;;;;;;;;;;;;;;;5021816;28;20628;-80
2022/08/01 11:22:57;;;;;;;;;;;;;;;;;;5021489;28;19921;-79
2022/08/01 11:25:45;;;;;;;;;;;;;;;;;;5021429;28;20344;-79
2022/08/01 11:28:32;;;;;;;;;;;;;;;;;;5021460;28;19924;-78
2022/08/01 11:31:18;;;;;;;;;;;;;;;;;;5022200;28;19913;-78
2022/08/01 11:34:05;;;;;;;;;;;;;;;;;;5008355;28;19943;-78
2022/08/01 11:36:51;;;;;;;;;;;;;;;;;;5025530;28;20574;-79
2022/08/01 11:39:38;;;;;;;;;;;;;;;;;;5025598;28;19921;-79
2022/08/01 11:42:24;;;;;;;;;;;;;;;;;;5025932;28;19963;-78
2022/08/01 11:45:11;;;;;;;;;;;;;;;;;;5026094;28;19917;-77
2022/08/01 11:47:57;;;;;;;;;;;;;;;;;;5008520;28;19936;-78
2022/08/01 11:50:44;;;;;;;;;;;;;;;;;;5025228;28;19940;-77
2022/08/01 11:53:33;;;;;;;;;;;;;;;;;;5025518;28;19913;-77
2022/08/01 11:56:19;;;;;;;;;;;;;;;;;;5024184;28;20027;-78
2022/08/01 11:59:06;;;;;;;;;;;;;;;;;;5023930;28;19928;-78
2022/08/01 12:01:52;;;;;;;;;;;;;;;;;;5024513;28;20670;-77
2022/08/01 12:04:38;;;;;;;;;;;;;;;;;;5025178;28;19913;-78
2022/08/01 12:07:25;;;;;;;;;;;;;;;;;;5026475;28;19925;-80
2022/08/01 12:10:12;;;;;;;;;;;;;;;;;;5026213;28;20391;-80
2022/08/01 12:12:58;;;;;;;;;;;;;;;;;;5009763;28;19922;-80
2022/08/01 12:15:45;;;;;;;;;;;;;;;;;;5026037;28;19935;-79
2022/08/01 12:18:31;;;;;;;;;;;;;;;;;;5012703;28;19923;-80
2022/08/01 12:21:19;;;;;;;;;;;;;;;;;;5025586;28;19917;-80
2022/08/01 12:24:05;;;;;;;;;;;;;;;;;;5026387;28;19919;-80
2022/08/01 12:26:52;;;;;;;;;;;;;;;;;;5027054;28;20297;-79
2022/08/01 12:29:39;;;;;;;;;;;;;;;;;;5026535;28;19913;-80
2022/08/01 12:32:25;;;;;;;;;;;;;;;;;;5024379;28;19923;-79
2022/08/01 12:35:12;;;;;;;;;;;;;;;;;;5024995;28;19917;-80
2022/08/01 12:37:58;;;;;;;;;;;;;;;;;;5024771;28;19917;-80
2022/08/01 12:40:46;;;;;;;;;;;;;;;;;;5023098;28;20403;-80
2022/08/01 12:43:34;;;;;;;;;;;;;;;;;;5025171;28;20042;-80
2022/08/01 12:46:21;;;;;;;;;;;;;;;;;;5016076;28;19914;-80
2022/08/01 12:49:07;;;;;;;;;;;;;;;;;;5021300;28;20978;-79
2022/08/01 12:51:54;;;;;;;;;;;;;;;;;;5009551;28;19919;-80
2022/08/01 12:54:40;;;;;;;;;;;;;;;;;;5022860;28;19913;-80
2022/08/01 12:57:27;;;;;;;;;;;;;;;;;;5010820;28;19917;-80
2022/08/01 13:00:13;;;;;;;;;;;;;;;;;;5022661;28;19913;-80
2022/08/01 13:03:00;;;;;;;;;;;;;;;;;;5012730;28;20401;-80
2022/08/01 13:05:48;;;;;;;;;;;;;;;;;;5023252;28;19925;-80
2022/08/01 13:08:34;;;;;;;;;;;;;;;;;;5023572;28;19920;-80
2022/08/01 13:11:21;;;;;;;;;;;;;;;;;;5022203;28;20372;-80
2022/08/01 13:14:07;;;;;;;;;;;;;;;;;;5020430;28;19921;-80
2022/08/01 13:16:54;;;;;;;;;;;;;;;;;;5011346;28;19947;-80
2022/08/01 13:19:40;;;;;;;;;;;;;;;;;;5023260;28;19913;-79
2022/08/01 13:22:27;;;;;;;;;;;;;;;;;;5022028;28;19921;-79
2022/08/01 13:25:13;;;;;;;;;;;;;;;;;;5025992;28;19924;-80
2022/08/01 13:28:00;;;;;;;;;;;;;;;;;;5024924;28;20265;-80
2022/08/01 13:30:46;;;;;;;;;;;;;;;;;;5009447;28;19921;-80
2022/08/01 13:33:32;;;;;;;;;;;;;;;;;;5025212;28;20392;-79
2022/08/01 13:36:19;;;;;;;;;;;;;;;;;;5025663;28;19917;-79
2022/08/01 13:42:11;;;;;;;;;;;;;;;;;;5022237;28;19928;-78
2022/08/01 13:44:57;;;;;;;;;;;;;;;;;;5023610;28;19921;-83
2022/08/01 13:47:44;;;;;;;;;;;;;;;;;;5021222;28;19923;-78
2022/08/01 13:50:31;;;;;;;;;;;;;;;;;;5025562;28;19920;-78
2022/08/01 13:53:17;;;;;;;;;;;;;;;;;;5022273;28;20444;-79
2022/08/01 13:56:04;;;;;;;;;;;;;;;;;;5020659;28;19917;-81
2022/08/01 13:58:51;;;;;;;;;;;;;;;;;;5021609;28;19948;-80
2022/08/01 14:01:37;;;;;;;;;;;;;;;;;;5022006;28;19921;-80
2022/08/01 14:04:23;;;;;;;;;;;;;;;;;;5022915;28;19919;-78
2022/08/01 14:07:10;;;;;;;;;;;;;;;;;;5005474;28;20427;-81
2022/08/01 14:09:56;;;;;;;;;;;;;;;;;;5023054;28;19928;-80
2022/08/01 14:12:43;;;;;;;;;;;;;;;;;;5021849;28;20639;-81
2022/08/01 14:15:29;;;;;;;;;;;;;;;;;;5024716;28;19920;-82
2022/08/01 14:18:16;;;;;;;;;;;;;;;;;;5013841;28;19913;-82
2022/08/01 14:21:02;;;;;;;;;;;;;;;;;;5029917;28;19925;-79
2022/08/01 14:23:49;;;;;;;;;;;;;;;;;;5022340;28;19936;-84
2022/08/01 14:26:35;;;;;;;;;;;;;;;;;;5021149;28;19920;-83
2022/08/01 14:29:22;;;;;;;;;;;;;;;;;;5021943;28;19944;-83
2022/08/01 14:32:08;;;;;;;;;;;;;;;;;;5024868;28;19913;-87
2022/08/01 14:34:55;;;;;;;;;;;;;;;;;;5023134;28;19917;-81
2022/08/01 14:37:42;;;;;;;;;;;;;;;;;;5020594;28;19917;-80
2022/08/01 14:40:28;;;;;;;;;;;;;;;;;;5022804;28;19917;-81
2022/08/01 14:43:15;;;;;;;;;;;;;;;;;;5023213;28;19924;-84
2022/08/01 14:46:03;;;;;;;;;;;;;;;;;;5025310;28;19920;-80
2022/08/01 14:48:49;;;;;;;;;;;;;;;;;;5025804;28;19913;-87
2022/08/01 14:51:37;;;;;;;;;;;;;;;;;;5021879;28;20003;-87
2022/08/01 14:54:24;;;;;;;;;;;;;;;;;;5025505;28;19917;-85
2022/08/01 14:57:10;;;;;;;;;;;;;;;;;;5024343;28;20383;-85
2022/08/01 14:59:57;;;;;;;;;;;;;;;;;;5022921;28;19917;-82
2022/08/01 15:02:43;;;;;;;;;;;;;;;;;;5021167;28;20380;-82
2022/08/01 15:05:30;;;;;;;;;;;;;;;;;;5007844;28;19921;-85
2022/08/01 15:08:17;;;;;;;;;;;;;;;;;;5022104;28;19917;-86
2022/08/01 15:11:03;;;;;;;;;;;;;;;;;;5026695;28;19916;-81
2022/08/01 15:14:47;;;;;;;;;;;;;;;;;;5024284;28;20325;-82
2022/08/01 15:16:56;;;;;;;;;;;;;;;;;;5028153;28;19920;-82
2022/08/01 15:19:43;;;;;;;;;;;;;;;;;;5023488;28;19921;-80
2022/08/01 15:22:29;;;;;;;;;;;;;;;;;;5011198;28;19921;-79
2022/08/01 15:25:16;;;;;;;;;;;;;;;;;;5024336;28;19916;-82
2022/08/01 15:28:02;;;;;;;;;;;;;;;;;;5023739;28;19925;-82
2022/08/01 15:30:49;;;;;;;;;;;;;;;;;;5025060;28;19949;-83
2022/08/01 15:33:35;;;;;;;;;;;;;;;;;;5024900;28;19924;-87
2022/08/01 15:36:22;;;;;;;;;;;;;;;;;;5026710;28;19916;-84
2022/08/01 15:39:08;;;;;;;;;;;;;;;;;;5026326;28;19917;-85
2022/08/01 15:41:55;;;;;;;;;;;;;;;;;;5026126;28;19927;-83
2022/08/01 15:44:41;;;;;;;;;;;;;;;;;;5028460;28;19913;-83
2022/08/01 15:47:28;;;;;;;;;;;;;;;;;;5027184;28;19917;-83
2022/08/01 15:50:14;;;;;;;;;;;;;;;;;;5026304;28;19932;-84
2022/08/01 15:53:01;;;;;;;;;;;;;;;;;;5026498;28;19921;-86
2022/08/01 15:55:47;;;;;;;;;;;;;;;;;;5025553;28;20278;-83
2022/08/01 15:58:33;;;;;;;;;;;;;;;;;;5024470;28;19919;-82
2022/08/01 16:01:20;;;;;;;;;;;;;;;;;;5026626;28;19925;-84
2022/08/01 16:04:07;;;;;;;;;;;;;;;;;;5024188;28;19921;-85
2022/08/01 16:06:53;;;;;;;;;;;;;;;;;;5025401;28;19925;-85
2022/08/01 16:09:40;;;;;;;;;;;;;;;;;;5027112;28;19909;-83
2022/08/01 16:12:26;;;;;;;;;;;;;;;;;;5028847;28;19913;-85
2022/08/01 16:15:13;;;;;;;;;;;;;;;;;;5011203;28;19952;-84
2022/08/01 16:17:59;;;;;;;;;;;;;;;;;;5025492;28;19921;-84
2022/08/01 16:20:46;;;;;;;;;;;;;;;;;;5024159;28;20000;-84
2022/08/01 16:23:32;;;;;;;;;;;;;;;;;;5025245;28;20409;-83
2022/08/01 16:26:19;;;;;;;;;;;;;;;;;;5040010;28;19920;-89
2022/08/01 16:29:05;;;;;;;;;;;;;;;;;;5036864;28;19924;-90
2022/08/01 16:31:52;;;;;;;;;;;;;;;;;;5036670;28;19917;-89
2022/08/01 16:34:39;;;;;;;;;;;;;;;;;;5037696;28;20258;-90
2022/08/01 16:37:25;;;;;;;;;;;;;;;;;;5040562;28;19909;-89
2022/08/01 16:40:11;;;;;;;;;;;;;;;;;;5035732;28;19913;-90
2022/08/01 16:42:58;;;;;;;;;;;;;;;;;;5034580;28;19928;-90
2022/08/01 16:45:44;;;;;;;;;;;;;;;;;;5034097;28;19913;-90
2022/08/01 16:48:32;;;;;;;;;;;;;;;;;;5036118;28;19909;-90
2022/08/01 16:51:19;;;;;;;;;;;;;;;;;;5033935;28;20400;-90
2022/08/01 16:54:05;;;;;;;;;;;;;;;;;;5033771;28;19913;-92
2022/08/01 16:56:51;;;;;;;;;;;;;;;;;;5030311;28;19917;-90
2022/08/01 16:59:38;;;;;;;;;;;;;;;;;;5026912;28;19917;-89
2022/08/01 17:02:24;;;;;;;;;;;;;;;;;;5030387;28;19927;-90
2022/08/01 17:05:11;;;;;;;;;;;;;;;;;;5059965;28;19956;-90
2022/08/01 17:07:57;;;;;;;;;;;;;;;;;;5058389;28;19925;-88
2022/08/01 17:10:44;;;;;;;;;;;;;;;;;;5055414;28;19897;-90
2022/08/01 17:13:31;;;;;;;;;;;;;;;;;;5053649;28;19909;-90
2022/08/01 17:16:17;;;;;;;;;;;;;;;;;;5050877;28;19913;-90
2022/08/01 17:19:04;;;;;;;;;;;;;;;;;;5052496;28;19919;-91
2022/08/01 17:21:50;;;;;;;;;;;;;;;;;;5051233;28;19913;-90
2022/08/01 17:24:37;;;;;;;;;;;;;;;;;;5033908;28;20145;-90
2022/08/01 17:27:23;;;;;;;;;;;;;;;;;;5046680;28;20621;-89
2022/08/01 17:30:12;;;;;;;;;;;;;;;;;;5051017;28;19905;-91
2022/08/01 17:32:58;;;;;;;;;;;;;;;;;;5028908;28;19910;-89
2022/08/01 17:35:45;;;;;;;;;;;;;;;;;;5051230;28;19924;-91
2022/08/01 17:38:31;;;;;;;;;;;;;;;;;;5051836;28;19917;-91
2022/08/01 17:41:18;;;;;;;;;;;;;;;;;;5053464;28;19905;-90
2022/08/01 17:44:04;;;;;;;;;;;;;;;;;;5050030;28;19946;-90
2022/08/01 17:46:51;;;;;;;;;;;;;;;;;;5030311;28;19913;-90
2022/08/01 17:49:38;;;;;;;;;;;;;;;;;;5050119;28;19906;-88
2022/08/01 17:52:24;;;;;;;;;;;;;;;;;;5053288;28;19913;-91
2022/08/01 17:55:11;;;;;;;;;;;;;;;;;;5052225;28;19917;-90
2022/08/01 17:57:57;;;;;;;;;;;;;;;;;;5044966;28;19909;-89
2022/08/01 18:00:44;;;;;;;;;;;;;;;;;;5049230;28;19913;-88
2022/08/01 18:03:31;;;;;;;;;;;;;;;;;;5052539;28;19921;-90
2022/08/01 18:06:18;;;;;;;;;;;;;;;;;;5040361;28;19921;-91
2022/08/01 18:09:04;;;;;;;;;;;;;;;;;;5029871;28;20436;-89
2022/08/01 18:11:51;;;;;;;;;;;;;;;;;;5048474;28;19920;-86
2022/08/01 18:14:37;;;;;;;;;;;;;;;;;;5044127;28;19920;-87
2022/08/01 18:17:24;;;;;;;;;;;;;;;;;;5035409;28;19918;-89
2022/08/01 18:20:12;;;;;;;;;;;;;;;;;;5051874;28;19892;-87
2022/08/01 18:22:58;;;;;;;;;;;;;;;;;;5023907;28;19922;-88
2022/08/01 18:25:45;;;;;;;;;;;;;;;;;;5041560;28;19917;-88
2022/08/01 18:28:31;;;;;;;;;;;;;;;;;;5044763;28;19996;-90
2022/08/01 18:31:19;;;;;;;;;;;;;;;;;;5043368;28;19913;-89
2022/08/01 18:34:05;;;;;;;;;;;;;;;;;;5037983;28;20633;-89
2022/08/01 18:36:52;;;;;;;;;;;;;;;;;;5038576;28;19909;-89
2022/08/01 18:39:39;;;;;;;;;;;;;;;;;;5033408;28;19920;-88
2022/08/01 18:42:25;;;;;;;;;;;;;;;;;;5031035;28;19928;-88
2022/08/01 18:45:12;;;;;;;;;;;;;;;;;;5015768;28;19924;-90
2022/08/01 18:47:58;;;;;;;;;;;;;;;;;;5018852;28;19920;-88
2022/08/01 18:50:45;;;;;;;;;;;;;;;;;;5023900;28;19917;-87
2022/08/01 18:53:31;;;;;;;;;;;;;;;;;;5031578;28;19995;-88
2022/08/01 18:56:18;;;;;;;;;;;;;;;;;;5025920;28;20373;-87
2022/08/01 18:59:04;;;;;;;;;;;;;;;;;;5022470;28;19924;-87
2022/08/01 19:01:51;;;;;;;;;;;;;;;;;;5026739;28;19921;-90